createdAt,value
2018-01-26T00:01:16.712Z,95385.98
2018-01-26T00:03:45.750Z,95386.79
2018-01-26T00:06:14.780Z,95396.05
2018-01-26T00:08:43.808Z,95391.14
2018-01-26T00:11:12.843Z,95389.58
2018-01-26T00:13:41.878Z,95379.55
2018-01-26T00:16:10.940Z,95382.35
2018-01-26T00:18:39.979Z,95379.57
2018-01-26T00:21:08.990Z,95377.66
2018-01-26T00:23:38.028Z,95371.20
2018-01-26T00:26:07.065Z,95367.69
2018-01-26T00:28:36.105Z,95376.45
2018-01-26T00:33:41.092Z,95381.70
2018-01-26T00:36:10.120Z,95380.46
2018-01-26T00:38:39.157Z,95371.88
2018-01-26T00:43:43.393Z,95373.06
2018-01-26T00:46:12.419Z,95380.36
2018-01-26T00:48:41.433Z,95375.32
2018-01-26T00:51:10.482Z,95373.12
2018-01-26T00:56:14.752Z,95363.89
2018-01-26T00:58:43.785Z,95361.20
2018-01-26T01:01:12.808Z,95361.14
2018-01-26T01:03:41.842Z,95356.50
2018-01-26T01:06:10.877Z,95355.56
2018-01-26T01:11:16.092Z,95351.18
2018-01-26T01:13:45.136Z,95345.55
2018-01-26T01:16:14.213Z,95344.79
2018-01-26T01:18:43.242Z,95351.27
2018-01-26T01:21:12.269Z,95343.13
2018-01-26T01:23:41.293Z,95340.38
2018-01-26T01:26:10.409Z,95339.58
2018-01-26T01:28:39.449Z,95335.84
2018-01-26T01:31:08.472Z,95333.58
2018-01-26T01:33:37.509Z,95336.48
2018-01-26T01:36:06.565Z,95346.88
2018-01-26T01:38:35.611Z,95340.81
2018-01-26T01:41:04.657Z,95334.91
2018-01-26T01:46:08.921Z,95329.56
2018-01-26T01:48:37.953Z,95328.69
2018-01-26T01:51:06.980Z,95333.73
2018-01-26T01:53:36.006Z,95331.97
2018-01-26T01:56:05.033Z,95328.91
2018-01-26T01:58:34.122Z,95319.36
2018-01-26T02:01:07.059Z,95318.39
2018-01-26T02:03:36.079Z,95323.23
2018-01-26T02:06:05.109Z,95319.52
2018-01-26T02:08:34.144Z,95313.59
2018-01-26T02:11:03.177Z,95311.93
2018-01-26T02:13:32.226Z,95312.22
2018-01-26T02:16:01.299Z,95307.31
2018-01-26T02:18:30.328Z,95307.17
2018-01-26T02:20:59.368Z,95305.32
2018-01-26T02:23:28.393Z,95299.47
2018-01-26T02:25:57.460Z,95303.97
2018-01-26T02:28:26.510Z,95296.53
2018-01-26T02:30:59.171Z,95289.39
2018-01-26T02:33:28.185Z,95296.77
2018-01-26T02:35:57.233Z,95294.05
2018-01-26T02:38:26.258Z,95293.34
2018-01-26T02:40:55.290Z,95290.61
2018-01-26T02:43:24.368Z,95292.69
2018-01-26T02:45:53.393Z,95300.25
2018-01-26T02:48:22.444Z,95297.35
2018-01-26T02:50:51.489Z,95297.03
2018-01-26T02:53:20.599Z,95295.75
2018-01-26T02:55:49.633Z,95293.84
2018-01-26T02:58:26.005Z,95285.80
2018-01-26T03:00:55.027Z,95280.17
2018-01-26T03:03:24.052Z,95275.75
2018-01-26T03:05:53.268Z,95284.73
2018-01-26T03:08:22.296Z,95278.23
2018-01-26T03:10:51.360Z,95280.75
2018-01-26T03:13:24.616Z,95278.66
2018-01-26T03:15:57.604Z,95280.86
2018-01-26T03:18:26.620Z,95280.42
2018-01-26T03:20:55.649Z,95279.20
2018-01-26T03:23:24.681Z,95281.38
2018-01-26T03:25:53.723Z,95280.26
2018-01-26T03:28:22.753Z,95270.55
2018-01-26T03:30:51.769Z,95267.34
2018-01-26T03:33:20.803Z,95261.34
2018-01-26T03:35:49.857Z,95264.17
2018-01-26T03:38:18.881Z,95264.52
2018-01-26T03:40:47.906Z,95264.27
2018-01-26T03:43:16.941Z,95263.30
2018-01-26T03:45:46.757Z,95261.76
2018-01-26T03:48:18.209Z,95260.84
2018-01-26T03:50:47.214Z,95267.72
2018-01-26T03:53:16.247Z,95260.27
2018-01-26T03:55:45.318Z,95257.84
2018-01-26T03:58:14.335Z,95256.37
2018-01-26T04:03:18.574Z,95251.31
2018-01-26T04:05:47.616Z,95244.05
2018-01-26T04:08:16.653Z,95244.82
2018-01-26T04:13:20.904Z,95244.67
2018-01-26T04:15:49.934Z,95245.83
2018-01-26T04:18:18.965Z,95256.30
2018-01-26T04:23:43.813Z,95261.97
2018-01-26T04:26:12.848Z,95266.29
2018-01-26T04:28:44.103Z,95263.15
2018-01-26T04:31:14.016Z,95260.14
2018-01-26T04:33:43.538Z,95260.25
2018-01-26T04:36:12.569Z,95260.39
2018-01-26T04:41:16.825Z,95263.84
2018-01-26T04:43:45.865Z,95259.70
2018-01-26T04:46:14.908Z,95261.91
2018-01-26T04:48:43.948Z,95266.47
2018-01-26T04:51:12.973Z,95264.44
2018-01-26T04:53:42.064Z,95261.17
2018-01-26T04:56:11.109Z,95258.48
2018-01-26T04:58:40.143Z,95260.05
2018-01-26T05:01:09.175Z,95259.37
2018-01-26T05:03:38.201Z,95264.47
2018-01-26T05:06:07.232Z,95277.01
2018-01-26T05:08:36.282Z,95273.28
2018-01-26T05:11:05.385Z,95271.51
2018-01-26T05:13:34.396Z,95270.52
2018-01-26T05:18:38.642Z,95264.25
2018-01-26T05:21:07.677Z,95264.91
2018-01-26T05:23:36.762Z,95264.12
2018-01-26T05:26:05.869Z,95264.72
2018-01-26T05:28:34.888Z,95272.80
2018-01-26T05:31:03.933Z,95275.37
2018-01-26T05:33:32.963Z,95278.51
2018-01-26T05:36:02.012Z,95280.20
2018-01-26T05:38:31.036Z,95280.34
2018-01-26T05:41:00.073Z,95282.48
2018-01-26T05:43:29.127Z,95286.14
2018-01-26T05:45:58.213Z,95288.71
2018-01-26T05:48:27.264Z,95291.75
2018-01-26T05:50:56.299Z,95300.36
2018-01-26T05:53:25.353Z,95298.08
2018-01-26T05:55:54.406Z,95299.87
2018-01-26T05:58:23.445Z,95305.93
2018-01-26T06:03:27.680Z,95310.09
2018-01-26T06:08:35.352Z,95316.63
2018-01-26T06:11:04.390Z,95320.27
2018-01-26T06:13:33.425Z,95322.55
2018-01-26T06:16:02.465Z,95316.86
2018-01-26T06:18:31.520Z,95319.38
2018-01-26T06:21:00.570Z,95319.21
2018-01-26T06:23:29.607Z,95322.84
2018-01-26T06:25:58.640Z,95318.05
2018-01-26T06:28:27.673Z,95318.19
2018-01-26T06:30:56.716Z,95310.53
2018-01-26T06:33:25.757Z,95310.41
2018-01-26T06:35:54.808Z,95310.94
2018-01-26T06:38:23.838Z,95307.95
2018-01-26T06:40:52.889Z,95307.30
2018-01-26T06:43:21.995Z,95304.71
2018-01-26T06:45:51.020Z,95302.08
2018-01-26T06:53:31.474Z,95298.41
2018-01-26T06:56:00.543Z,95295.25
2018-01-26T06:58:29.588Z,95294.80
2018-01-26T07:03:33.917Z,95297.27
2018-01-26T07:06:02.961Z,95299.45
2018-01-26T07:08:32.000Z,95295.33
2018-01-26T07:13:36.268Z,95294.48
2018-01-26T07:18:40.568Z,95291.75
2018-01-26T07:21:09.652Z,95294.17
2018-01-26T07:23:38.701Z,95299.50
2018-01-26T07:26:07.741Z,95303.66
2018-01-26T07:28:36.776Z,95309.50
2018-01-26T07:31:05.844Z,95310.75
2018-01-26T07:33:34.877Z,95311.31
2018-01-26T07:36:03.997Z,95304.25
2018-01-26T07:38:33.985Z,95298.55
2018-01-26T07:41:03.072Z,95297.02
2018-01-26T07:43:32.124Z,95298.59
2018-01-26T07:46:03.058Z,95306.05
2018-01-26T07:48:32.087Z,95312.29
2018-01-26T07:51:01.146Z,95312.08
2018-01-26T07:53:30.181Z,95316.40
2018-01-26T07:55:59.217Z,95311.52
2018-01-26T07:58:28.265Z,95308.02
2018-01-26T08:00:57.310Z,95311.42
2018-01-26T08:03:26.361Z,95311.81
2018-01-26T08:05:55.412Z,95311.36
2018-01-26T08:08:24.450Z,95317.27
2018-01-26T08:10:53.492Z,95322.10
2018-01-26T08:13:22.524Z,95316.77
2018-01-26T08:15:52.374Z,95319.48
2018-01-26T08:18:21.413Z,95316.59
2018-01-26T08:20:50.440Z,95322.92
2018-01-26T08:23:19.473Z,95319.05
2018-01-26T08:25:49.927Z,95316.16
2018-01-26T08:28:28.379Z,95314.91
2018-01-26T08:30:58.583Z,95317.35
2018-01-26T08:33:27.673Z,95324.03
2018-01-26T08:36:01.654Z,95320.89
2018-01-26T08:38:30.652Z,95313.30
2018-01-26T08:41:00.489Z,95311.44
2018-01-26T08:43:29.523Z,95314.11
2018-01-26T08:45:59.561Z,95317.21
2018-01-26T08:48:28.649Z,95321.98
2018-01-26T08:50:58.371Z,95321.16
2018-01-26T08:53:27.445Z,95320.84
2018-01-26T08:55:58.053Z,95327.13
2018-01-26T08:58:27.079Z,95329.14
2018-01-26T09:00:56.093Z,95331.25
2018-01-26T09:06:00.338Z,95337.09
2018-01-26T09:11:08.039Z,95347.50
2018-01-26T09:13:37.114Z,95342.54
2018-01-26T09:16:06.092Z,95340.50
2018-01-26T09:18:35.129Z,95336.37
2018-01-26T09:21:07.735Z,95331.03
2018-01-26T09:23:36.976Z,95331.92
2018-01-26T09:26:06.001Z,95326.09
2018-01-26T09:28:35.029Z,95329.14
2018-01-26T09:31:04.057Z,95326.11
2018-01-26T09:33:33.091Z,95327.71
2018-01-26T09:36:02.160Z,95327.55
2018-01-26T09:38:31.197Z,95336.16
2018-01-26T09:43:35.453Z,95329.38
2018-01-26T09:46:04.712Z,95326.83
2018-01-26T09:48:33.827Z,95327.03
2018-01-26T09:51:02.844Z,95324.55
2018-01-26T09:53:31.878Z,95324.22
2018-01-26T09:56:01.644Z,95323.59
2018-01-26T09:58:30.649Z,95321.22
2018-01-26T10:00:59.694Z,95327.70
2018-01-26T10:03:28.730Z,95330.53
2018-01-26T10:05:57.784Z,95330.63
2018-01-26T10:08:26.806Z,95341.84
2018-01-26T10:10:55.866Z,95341.49
2018-01-26T10:16:00.235Z,95344.83
2018-01-26T10:18:29.295Z,95339.18
2018-01-26T10:20:58.318Z,95335.28
2018-01-26T10:23:27.355Z,95337.49
2018-01-26T10:25:56.406Z,95342.44
2018-01-26T10:31:00.689Z,95356.18
2018-01-26T10:33:29.743Z,95356.35
2018-01-26T10:35:58.781Z,95354.08
2018-01-26T10:41:03.175Z,95351.16
2018-01-26T10:43:32.198Z,95354.95
2018-01-26T10:46:01.357Z,95360.48
2018-01-26T10:48:30.325Z,95364.73
2018-01-26T10:51:00.333Z,95370.74
2018-01-26T10:53:29.399Z,95358.52
2018-01-26T10:55:58.570Z,95360.47
2018-01-26T10:58:27.632Z,95370.16
2018-01-26T11:03:31.922Z,95368.00
2018-01-26T11:06:00.994Z,95370.66
2018-01-26T11:08:30.038Z,95377.94
2018-01-26T11:10:59.074Z,95381.70
2018-01-26T11:13:28.116Z,95386.42
2018-01-26T11:15:57.167Z,95381.90
2018-01-26T11:18:26.213Z,95377.01
2018-01-26T11:20:55.286Z,95376.06
2018-01-26T11:23:24.363Z,95384.53
2018-01-26T11:25:54.905Z,95387.44
2018-01-26T11:28:23.954Z,95390.83
2018-01-26T11:30:52.993Z,95390.67
2018-01-26T11:33:22.038Z,95391.89
2018-01-26T11:35:51.093Z,95393.71
2018-01-26T11:38:20.268Z,95393.04
2018-01-26T11:40:49.272Z,95393.85
2018-01-26T11:43:18.354Z,95389.19
2018-01-26T11:45:47.418Z,95386.53
2018-01-26T11:48:16.468Z,95378.45
2018-01-26T11:50:45.590Z,95369.30
2018-01-26T11:53:14.613Z,95363.91
2018-01-26T11:55:43.689Z,95362.66
2018-01-26T11:58:12.712Z,95366.81
2018-01-26T12:00:41.766Z,95375.59
2018-01-26T12:03:10.826Z,95389.18
2018-01-26T12:05:39.877Z,95393.62
2018-01-26T12:08:08.950Z,95397.81
2018-01-26T12:10:38.596Z,95394.94
2018-01-26T12:13:07.650Z,95382.25
2018-01-26T12:15:37.645Z,95389.14
2018-01-26T12:18:06.706Z,95389.12
2018-01-26T12:20:36.767Z,95390.13
2018-01-26T12:23:05.833Z,95391.13
2018-01-26T12:25:35.892Z,95391.30
2018-01-26T12:30:40.236Z,95393.08
2018-01-26T12:33:09.293Z,95394.02
2018-01-26T12:35:38.640Z,95387.42
2018-01-26T12:38:07.686Z,95389.15
2018-01-26T12:40:37.541Z,95392.47
2018-01-26T12:45:41.945Z,95407.03
2018-01-26T12:48:10.982Z,95407.92
2018-01-26T12:50:40.037Z,95409.29
2018-01-26T12:55:44.378Z,95410.99
2018-01-26T12:58:13.421Z,95408.97
2018-01-26T13:00:42.465Z,95408.37
2018-01-26T13:03:11.528Z,95414.89
2018-01-26T13:05:46.059Z,95420.36
2018-01-26T13:10:50.602Z,95417.45
2018-01-26T13:13:19.653Z,95416.67
2018-01-26T13:15:48.714Z,95420.90
2018-01-26T13:18:17.756Z,95421.32
2018-01-26T13:20:46.805Z,95426.02
2018-01-26T13:23:15.854Z,95423.39
2018-01-26T13:25:45.046Z,95430.52
2018-01-26T13:28:15.032Z,95429.59
2018-01-26T13:30:44.103Z,95428.51
2018-01-26T13:35:48.357Z,95427.80
2018-01-26T13:38:17.423Z,95427.20
2018-01-26T13:40:46.459Z,95424.59
2018-01-26T13:43:15.505Z,95425.28
2018-01-26T13:45:44.568Z,95425.77
2018-01-26T13:48:13.630Z,95421.09
2018-01-26T13:50:42.702Z,95426.90
2018-01-26T13:53:11.757Z,95428.06
2018-01-26T13:55:40.840Z,95432.41
2018-01-26T13:58:09.919Z,95427.00
2018-01-26T14:00:38.985Z,95430.23
2018-01-26T14:03:08.038Z,95430.66
2018-01-26T14:05:37.994Z,95433.60
2018-01-26T14:08:07.022Z,95433.70
2018-01-26T14:10:36.901Z,95437.18
2018-01-26T14:15:41.206Z,95448.24
2018-01-26T14:18:10.262Z,95452.70
2018-01-26T14:20:39.321Z,95455.35
2018-01-26T14:23:08.382Z,95458.08
2018-01-26T14:25:38.119Z,95461.05
2018-01-26T14:28:07.203Z,95463.48
2018-01-26T14:30:36.993Z,95459.70
2018-01-26T14:33:06.051Z,95469.78
2018-01-26T14:35:35.941Z,95473.58
2018-01-26T14:38:05.022Z,95486.17
2018-01-26T14:40:34.106Z,95488.37
2018-01-26T14:43:03.145Z,95489.14
2018-01-26T14:45:32.226Z,95498.56
2018-01-26T14:50:37.460Z,95501.12
2018-01-26T14:53:10.163Z,95502.72
2018-01-26T14:55:44.259Z,95507.96
2018-01-26T14:58:18.939Z,95507.05
2018-01-26T15:00:51.266Z,95505.67
2018-01-26T15:03:20.298Z,95507.54
2018-01-26T15:05:49.353Z,95513.58
2018-01-26T15:13:29.817Z,95526.33
2018-01-26T15:18:36.038Z,95529.70
2018-01-26T15:21:05.062Z,95535.39
2018-01-26T15:23:34.115Z,95543.73
2018-01-26T15:26:03.184Z,95552.68
2018-01-26T15:28:32.246Z,95560.08
2018-01-26T15:31:01.821Z,95563.52
2018-01-26T15:33:30.854Z,95565.98
2018-01-26T15:35:59.918Z,95566.23
2018-01-26T15:38:28.952Z,95572.73
2018-01-26T15:40:58.000Z,95578.06
2018-01-26T15:43:27.033Z,95573.27
2018-01-26T15:45:56.078Z,95577.69
2018-01-26T15:51:00.339Z,95582.20
2018-01-26T15:53:29.390Z,95583.19
2018-01-26T15:55:58.437Z,95586.02
2018-01-26T15:58:27.482Z,95589.02
2018-01-26T16:00:56.532Z,95592.12
2018-01-26T16:03:25.575Z,95595.69
2018-01-26T16:05:54.623Z,95595.90
2018-01-26T16:08:23.842Z,95600.30
2018-01-26T16:10:52.883Z,95610.12
2018-01-26T16:13:21.918Z,95607.59
2018-01-26T16:16:04.621Z,95607.56
2018-01-26T16:18:33.705Z,95615.53
2018-01-26T16:21:03.642Z,95615.03
2018-01-26T16:23:32.694Z,95610.11
2018-01-26T16:26:01.762Z,95613.80
2018-01-26T16:28:30.800Z,95623.48
2018-01-26T16:30:59.846Z,95628.59
2018-01-26T16:33:28.899Z,95635.86
2018-01-26T16:35:57.961Z,95641.89
2018-01-26T16:41:02.249Z,95658.03
2018-01-26T16:43:31.315Z,95656.15
2018-01-26T16:46:00.381Z,95665.16
2018-01-26T16:48:35.385Z,95663.16
2018-01-26T16:51:09.777Z,95671.52
2018-01-26T16:53:39.061Z,95682.27
2018-01-26T16:56:08.758Z,95691.77
2018-01-26T16:58:37.844Z,95688.97
2018-01-26T17:01:10.240Z,95694.78
2018-01-26T17:03:39.376Z,95692.01
2018-01-26T17:06:08.964Z,95693.73
2018-01-26T17:08:37.996Z,95694.57
2018-01-26T17:11:07.753Z,95697.45
2018-01-26T17:13:41.379Z,95699.29
2018-01-26T17:16:11.194Z,95702.47
2018-01-26T17:18:40.234Z,95714.23
2018-01-26T17:21:09.294Z,95720.31
2018-01-26T17:31:24.086Z,95723.45
2018-01-26T17:33:53.142Z,95727.73
2018-01-26T17:36:26.379Z,95727.80
2018-01-26T17:38:55.438Z,95734.66
2018-01-26T17:41:25.551Z,95735.42
2018-01-26T17:43:54.879Z,95738.11
2018-01-26T17:48:59.999Z,95739.44
2018-01-26T17:51:29.061Z,95740.34
2018-01-26T17:53:58.120Z,95742.77
2018-01-26T17:56:28.086Z,95746.22
2018-01-26T17:58:57.172Z,95743.20
2018-01-26T18:01:26.219Z,95736.31
2018-01-26T18:03:55.255Z,95741.28
2018-01-26T18:06:24.312Z,95741.84
2018-01-26T18:08:53.351Z,95743.20
2018-01-26T18:11:22.425Z,95748.44
2018-01-26T18:15:54.015Z,95751.08
2018-01-26T18:20:58.371Z,95767.56
2018-01-26T18:23:27.665Z,95768.29
2018-01-26T18:25:56.712Z,95771.33
2018-01-26T18:28:25.865Z,95776.53
2018-01-26T18:30:54.914Z,95777.45
2018-01-26T18:33:24.004Z,95785.38
2018-01-26T18:41:03.891Z,95791.44
2018-01-26T18:46:08.584Z,95789.53
2018-01-26T18:48:37.772Z,95792.97
2018-01-26T18:51:08.902Z,95789.53
2018-01-26T18:53:39.703Z,95793.13
2018-01-26T18:56:08.952Z,95800.28
2018-01-26T18:58:38.064Z,95800.64
2018-01-26T19:01:07.797Z,95800.63
2018-01-26T19:06:18.879Z,95809.83
2018-01-26T19:08:51.941Z,95815.30
2018-01-26T19:11:26.183Z,95813.31
2018-01-26T19:13:59.109Z,95813.47
2018-01-26T19:16:33.598Z,95809.48
2018-01-26T19:19:06.792Z,95806.89
2018-01-26T19:21:35.803Z,95803.66
2018-01-26T19:24:05.639Z,95807.36
2018-01-26T19:26:34.710Z,95811.78
2018-01-26T19:29:03.781Z,95825.83
2018-01-26T19:31:32.818Z,95835.80
2018-01-26T19:34:01.869Z,95843.64
2018-01-26T19:36:30.908Z,95838.31
2018-01-26T19:39:00.062Z,95839.73
2018-01-26T19:41:30.936Z,95850.49
2018-01-26T19:43:59.973Z,95854.30
2018-01-26T19:46:29.037Z,95849.38
2018-01-26T19:48:58.074Z,95851.60
2018-01-26T19:51:28.050Z,95856.74
2018-01-26T19:53:57.073Z,95858.61
2018-01-26T19:56:26.135Z,95857.63
2018-01-26T19:58:55.169Z,95860.13
2018-01-26T20:01:24.220Z,95866.36
2018-01-26T20:09:09.189Z,95877.23
2018-01-26T20:11:38.166Z,95872.30
2018-01-26T20:14:13.955Z,95874.75
2018-01-26T20:16:43.507Z,95881.23
2018-01-26T20:21:47.802Z,95884.27
2018-01-26T20:24:22.477Z,95888.61
2018-01-26T20:26:51.495Z,95892.97
2018-01-26T20:29:20.544Z,95892.21
2018-01-26T20:31:49.577Z,95896.47
2018-01-26T20:34:18.625Z,95899.95
2018-01-26T20:36:47.670Z,95892.65
2018-01-26T20:39:16.714Z,95903.69
2018-01-26T20:41:45.743Z,95909.42
2018-01-26T20:44:14.789Z,95916.97
2018-01-26T20:46:43.874Z,95918.67
2018-01-26T20:49:12.901Z,95917.31
2018-01-26T20:51:41.972Z,95918.40
2018-01-26T20:54:10.998Z,95922.46
2018-01-26T20:56:40.042Z,95918.55
2018-01-26T20:59:09.081Z,95921.63
2018-01-26T21:01:38.131Z,95926.05
2018-01-26T21:04:07.191Z,95933.57
2018-01-26T21:06:40.159Z,95944.55
2018-01-26T21:09:09.201Z,95941.62
2018-01-26T21:11:38.237Z,95937.20
2018-01-26T21:14:07.292Z,95942.01
2018-01-26T21:16:36.346Z,95945.38
2018-01-26T21:19:05.393Z,95954.47
2018-01-26T21:21:34.432Z,95959.57
2018-01-26T21:24:03.469Z,95953.84
2018-01-26T21:26:32.530Z,95958.53
2018-01-26T21:29:01.626Z,95953.71
2018-01-26T21:34:06.909Z,95949.59
2018-01-26T21:36:35.975Z,95952.11
2018-01-26T21:41:40.765Z,95956.66
2018-01-26T21:44:09.802Z,95957.55
2018-01-26T21:46:38.845Z,95969.26
2018-01-26T21:49:07.885Z,95970.20
2018-01-26T21:51:36.930Z,95969.45
2018-01-26T21:56:41.204Z,95975.23
2018-01-26T21:59:10.278Z,95987.42
2018-01-26T22:01:39.327Z,95994.68
2018-01-26T22:04:08.373Z,95992.42
2018-01-26T22:09:15.081Z,96001.73
2018-01-26T22:11:44.123Z,96004.52
2018-01-26T22:14:13.192Z,96010.83
2018-01-26T22:16:42.242Z,96009.75
2018-01-26T22:19:11.296Z,96010.50
2018-01-26T22:21:40.329Z,96012.70
2018-01-26T22:24:09.370Z,96017.31
2018-01-26T22:26:38.430Z,96024.81
2018-01-26T22:29:07.484Z,96033.94
2018-01-26T22:31:36.522Z,96039.84
2018-01-26T22:34:05.549Z,96041.09
2018-01-26T22:36:34.605Z,96040.64
2018-01-26T22:39:03.639Z,96042.47
2018-01-26T22:41:32.693Z,96047.75
2018-01-26T22:44:01.726Z,96045.70
2018-01-26T22:46:30.778Z,96050.02
2018-01-26T22:48:59.823Z,96055.09
2018-01-26T22:51:28.858Z,96059.33
2018-01-26T22:53:57.901Z,96061.25
2018-01-26T22:56:26.951Z,96066.56
2018-01-26T22:58:56.001Z,96069.75
2018-01-26T23:01:25.045Z,96076.29
2018-01-26T23:03:54.095Z,96077.16
2018-01-26T23:06:23.129Z,96082.92
2018-01-26T23:08:52.181Z,96090.72
2018-01-26T23:11:21.234Z,96092.12
2018-01-26T23:13:50.285Z,96098.40
2018-01-26T23:16:22.088Z,96106.61
2018-01-26T23:18:53.823Z,96110.13
2018-01-26T23:24:03.764Z,96113.41
2018-01-26T23:26:36.031Z,96114.29
2018-01-26T23:29:07.600Z,96117.95
2018-01-26T23:31:39.287Z,96116.68
2018-01-26T23:34:11.380Z,96117.69
2018-01-26T23:39:18.977Z,96114.81
2018-01-26T23:41:50.699Z,96114.78
2018-01-26T23:44:22.218Z,96114.17
2018-01-26T23:46:55.795Z,96117.48
2018-01-26T23:49:27.426Z,96120.89
2018-01-26T23:52:01.760Z,96125.98
2018-01-26T23:57:08.224Z,96134.63
